Time;durP1;ratioP1;P1;durP2;ratioP2;P2;SDS_P1;SDS_P2;PMS_P1;PMS_P2;Temp;Humidity;BMP_temperature;BMP_pressure;BME280_temperature;BME280_humidity;BME280_pressure;Samples;Min_cycle;Max_cycle;Signal;HPM_P1;HPM_P2
2023/06/02 00:00:47;;;;;;;;;;;18.30;70.60;;;;;;5012233;28;88003;-49
2023/06/02 00:03:14;;;;;;;;;;;18.30;70.60;;;;;;5015074;28;87214;-46
2023/06/02 00:05:39;;;;;;;;;;;18.30;70.50;;;;;;5013970;28;87129;-47
2023/06/02 00:08:06;;;;;;;;;;;18.30;70.50;;;;;;5012129;28;88589;-47
2023/06/02 00:10:31;;;;;;;;;;;18.30;70.60;;;;;;5014549;28;86377;-46
2023/06/02 00:12:57;;;;;;;;;;;18.30;70.50;;;;;;4994431;28;89617;-49
2023/06/02 00:15:22;;;;;;;;;;;18.30;70.50;;;;;;4994496;28;87130;-47
2023/06/02 00:17:48;;;;;;;;;;;18.30;70.60;;;;;;4991834;28;87987;-46
2023/06/02 00:20:14;;;;;;;;;;;18.20;70.50;;;;;;4994086;28;88056;-47
2023/06/02 00:22:41;;;;;;;;;;;18.20;70.50;;;;;;4994214;28;87259;-46
2023/06/02 00:25:07;;;;;;;;;;;18.20;70.50;;;;;;4993240;28;88648;-48
2023/06/02 00:27:32;;;;;;;;;;;18.20;70.60;;;;;;4992439;28;88228;-47
2023/06/02 00:29:58;;;;;;;;;;;18.20;70.50;;;;;;4991558;28;87551;-46
2023/06/02 00:32:23;;;;;;;;;;;18.20;70.60;;;;;;4994939;28;87420;-48
2023/06/02 00:34:49;;;;;;;;;;;18.20;70.50;;;;;;4995236;28;86992;-47
2023/06/02 00:37:15;;;;;;;;;;;18.20;70.50;;;;;;4993582;28;87038;-46
2023/06/02 00:39:40;;;;;;;;;;;18.20;70.60;;;;;;4994204;28;88201;-47
2023/06/02 00:42:06;;;;;;;;;;;18.20;70.60;;;;;;4991393;28;88473;-48
2023/06/02 00:44:31;;;;;;;;;;;18.10;70.60;;;;;;4993896;28;88232;-48
2023/06/02 00:46:57;;;;;;;;;;;18.20;70.60;;;;;;4993293;28;87370;-49
2023/06/02 00:49:22;;;;;;;;;;;18.10;71.10;;;;;;4991678;28;86982;-46
2023/06/02 00:51:48;;;;;;;;;;;18.10;70.60;;;;;;4994348;28;87258;-47
2023/06/02 00:54:16;;;;;;;;;;;18.10;70.60;;;;;;4992828;28;88035;-47
2023/06/02 00:56:42;;;;;;;;;;;18.10;70.60;;;;;;4997388;28;86981;-48
2023/06/02 00:59:08;;;;;;;;;;;18.10;70.60;;;;;;4991463;28;88321;-46
2023/06/02 01:01:34;;;;;;;;;;;18.10;70.60;;;;;;4993345;28;87549;-47
2023/06/02 01:04:00;;;;;;;;;;;18.10;70.60;;;;;;4994128;28;87359;-47
2023/06/02 01:06:31;;;;;;;;;;;18.10;70.60;;;;;;4990392;28;89267;-46
2023/06/02 01:08:58;;;;;;;;;;;18.10;70.60;;;;;;4992980;28;87206;-46
2023/06/02 01:11:23;;;;;;;;;;;18.00;70.60;;;;;;4993169;28;87647;-48
2023/06/02 01:13:49;;;;;;;;;;;18.00;70.60;;;;;;5002186;28;88329;-46
2023/06/02 01:16:15;;;;;;;;;;;18.00;70.70;;;;;;5013182;28;87145;-46
2023/06/02 01:18:42;;;;;;;;;;;18.00;70.60;;;;;;5016274;28;87005;-48
2023/06/02 01:21:09;;;;;;;;;;;18.00;70.60;;;;;;5010857;28;87159;-48
2023/06/02 01:23:35;;;;;;;;;;;18.00;70.60;;;;;;5013132;28;87526;-46
2023/06/02 01:26:01;;;;;;;;;;;18.00;70.60;;;;;;5012565;28;88110;-47
2023/06/02 01:28:27;;;;;;;;;;;18.00;70.70;;;;;;5011257;28;87444;-47
2023/06/02 01:31:12;;;;;;;;;;;17.90;70.50;;;;;;5012649;28;88018;-47
2023/06/02 01:33:41;;;;;;;;;;;17.90;70.50;;;;;;5011516;28;87979;-46
2023/06/02 01:36:06;;;;;;;;;;;17.90;70.60;;;;;;5011693;28;87133;-46
2023/06/02 01:38:33;;;;;;;;;;;17.90;70.60;;;;;;5013817;28;87073;-47
2023/06/02 01:41:00;;;;;;;;;;;17.90;70.60;;;;;;5013888;28;88126;-47
2023/06/02 01:43:27;;;;;;;;;;;17.90;70.60;;;;;;5011469;28;89092;-48
2023/06/02 01:45:53;;;;;;;;;;;17.90;70.60;;;;;;5013390;28;87736;-46
2023/06/02 01:48:19;;;;;;;;;;;17.90;70.50;;;;;;5012060;28;86390;-46
2023/06/02 01:50:45;;;;;;;;;;;17.90;70.50;;;;;;5011835;28;87205;-46
2023/06/02 01:53:10;;;;;;;;;;;17.90;70.50;;;;;;5013256;28;88381;-46
2023/06/02 01:55:36;;;;;;;;;;;17.90;70.60;;;;;;5010654;28;88106;-47
2023/06/02 01:58:03;;;;;;;;;;;17.90;70.60;;;;;;5012405;28;88332;-47
2023/06/02 02:00:28;;;;;;;;;;;17.80;70.50;;;;;;5013465;28;87103;-47
2023/06/02 02:02:54;;;;;;;;;;;17.80;70.70;;;;;;5013412;28;87509;-48
2023/06/02 02:05:20;;;;;;;;;;;17.80;70.60;;;;;;5011672;28;88130;-47
2023/06/02 02:07:47;;;;;;;;;;;17.80;70.50;;;;;;5011339;28;87128;-47
2023/06/02 02:10:14;;;;;;;;;;;17.80;70.70;;;;;;5019583;28;87402;-46
2023/06/02 02:12:39;;;;;;;;;;;17.80;70.70;;;;;;5017182;28;86696;-46
2023/06/02 02:15:06;;;;;;;;;;;17.80;70.70;;;;;;5019910;28;87378;-46
2023/06/02 02:17:36;;;;;;;;;;;17.80;70.70;;;;;;5016863;28;87716;-46
2023/06/02 02:20:05;;;;;;;;;;;17.70;70.60;;;;;;5017696;28;89180;-47
2023/06/02 02:22:32;;;;;;;;;;;17.70;70.70;;;;;;5022681;28;87258;-46
2023/06/02 02:24:58;;;;;;;;;;;17.70;70.70;;;;;;5017174;28;88089;-48
2023/06/02 02:27:24;;;;;;;;;;;17.70;70.70;;;;;;5018798;28;87298;-45
2023/06/02 02:29:50;;;;;;;;;;;17.70;70.70;;;;;;4998871;28;88792;-47
2023/06/02 02:32:16;;;;;;;;;;;17.70;70.80;;;;;;5016991;28;88151;-46
2023/06/02 02:34:41;;;;;;;;;;;17.70;70.70;;;;;;5018530;28;87230;-46
2023/06/02 02:37:09;;;;;;;;;;;17.70;70.60;;;;;;5019721;28;87784;-48
2023/06/02 02:39:35;;;;;;;;;;;17.70;70.70;;;;;;5016198;28;89581;-46
2023/06/02 02:42:00;;;;;;;;;;;17.70;70.70;;;;;;5019510;28;87179;-46
2023/06/02 02:44:26;;;;;;;;;;;17.70;71.30;;;;;;5019743;28;88043;-47
2023/06/02 02:46:51;;;;;;;;;;;17.70;70.60;;;;;;5019599;28;87202;-47
2023/06/02 02:49:17;;;;;;;;;;;17.70;70.60;;;;;;5017653;28;87443;-49
2023/06/02 02:51:42;;;;;;;;;;;17.60;70.60;;;;;;5017626;28;88374;-47
2023/06/02 02:54:08;;;;;;;;;;;17.60;70.70;;;;;;5019434;28;87122;-47
2023/06/02 02:56:34;;;;;;;;;;;17.60;70.60;;;;;;5017425;28;87453;-45
2023/06/02 02:59:00;;;;;;;;;;;17.70;70.70;;;;;;5017308;28;88566;-47
2023/06/02 03:01:26;;;;;;;;;;;17.70;70.60;;;;;;5017491;28;86314;-47
2023/06/02 03:03:52;;;;;;;;;;;17.60;70.60;;;;;;5019525;28;86833;-47
2023/06/02 03:06:18;;;;;;;;;;;17.60;70.70;;;;;;5021315;28;88329;-47
2023/06/02 03:08:44;;;;;;;;;;;17.60;70.80;;;;;;5013878;28;88026;-49
2023/06/02 03:11:10;;;;;;;;;;;17.60;70.80;;;;;;5017165;28;88293;-49
2023/06/02 03:13:36;;;;;;;;;;;17.60;70.80;;;;;;5014810;28;87411;-47
2023/06/02 03:16:01;;;;;;;;;;;17.60;70.80;;;;;;5017903;28;87528;-46
2023/06/02 03:18:27;;;;;;;;;;;17.50;70.70;;;;;;5011612;28;87217;-47
2023/06/02 03:20:54;;;;;;;;;;;17.50;70.70;;;;;;5011152;28;87507;-46
2023/06/02 03:23:19;;;;;;;;;;;17.50;70.70;;;;;;5012561;28;88591;-46
2023/06/02 03:25:46;;;;;;;;;;;17.50;70.70;;;;;;5015809;28;86493;-48
2023/06/02 03:28:12;;;;;;;;;;;17.50;70.70;;;;;;5019531;28;87176;-46
2023/06/02 03:30:37;;;;;;;;;;;17.50;70.80;;;;;;5010566;28;88980;-46
2023/06/02 03:33:03;;;;;;;;;;;17.50;70.70;;;;;;5012150;28;88000;-49
2023/06/02 03:35:28;;;;;;;;;;;17.50;70.70;;;;;;5013661;28;87472;-47
2023/06/02 03:37:54;;;;;;;;;;;17.50;70.70;;;;;;5008610;28;87948;-47
2023/06/02 03:40:20;;;;;;;;;;;17.50;70.80;;;;;;5015588;28;88047;-46
2023/06/02 03:42:45;;;;;;;;;;;17.50;70.70;;;;;;5012969;28;87916;-46
2023/06/02 03:45:11;;;;;;;;;;;17.50;70.80;;;;;;5013048;28;87157;-46
2023/06/02 03:47:36;;;;;;;;;;;17.40;70.80;;;;;;5010618;28;87409;-47
2023/06/02 03:50:02;;;;;;;;;;;17.50;70.90;;;;;;5014354;28;87712;-46
2023/06/02 03:52:30;;;;;;;;;;;17.40;70.80;;;;;;5012044;28;87293;-46
2023/06/02 03:54:56;;;;;;;;;;;17.40;70.90;;;;;;4996269;28;88954;-46
2023/06/02 03:57:22;;;;;;;;;;;17.40;70.80;;;;;;5015231;28;88976;-46
2023/06/02 03:59:47;;;;;;;;;;;17.40;70.70;;;;;;5005552;28;87071;-47
2023/06/02 04:02:13;;;;;;;;;;;17.40;70.80;;;;;;5012834;28;87502;-47
2023/06/02 04:04:38;;;;;;;;;;;17.40;70.80;;;;;;5012819;28;87931;-46
2023/06/02 04:07:04;;;;;;;;;;;17.40;70.80;;;;;;5009852;28;87272;-50
2023/06/02 04:09:30;;;;;;;;;;;17.40;70.80;;;;;;5008438;28;87496;-46
2023/06/02 04:11:55;;;;;;;;;;;17.40;70.80;;;;;;5014275;28;87237;-46
2023/06/02 04:14:21;;;;;;;;;;;17.40;70.90;;;;;;5011447;28;87527;-47
2023/06/02 04:16:47;;;;;;;;;;;17.40;70.80;;;;;;5014341;28;87995;-46
2023/06/02 04:19:12;;;;;;;;;;;17.40;70.80;;;;;;5012561;28;88309;-47
2023/06/02 04:21:38;;;;;;;;;;;17.40;70.80;;;;;;4995094;28;89323;-48
2023/06/02 04:24:03;;;;;;;;;;;17.30;71.40;;;;;;5010190;28;88892;-46
2023/06/02 04:26:29;;;;;;;;;;;17.40;70.80;;;;;;5013407;28;88037;-46
2023/06/02 04:28:55;;;;;;;;;;;17.40;70.90;;;;;;5011905;28;87480;-48
2023/06/02 04:31:26;;;;;;;;;;;17.40;70.80;;;;;;5014379;28;88276;-47
2023/06/02 04:33:57;;;;;;;;;;;17.30;70.80;;;;;;5013686;28;87606;-46
2023/06/02 04:36:23;;;;;;;;;;;17.30;70.80;;;;;;5012819;28;88132;-48
2023/06/02 04:38:48;;;;;;;;;;;17.30;70.90;;;;;;5012106;28;86260;-47
2023/06/02 04:41:14;;;;;;;;;;;17.30;70.80;;;;;;5013088;28;87350;-46
2023/06/02 04:43:41;;;;;;;;;;;17.30;70.80;;;;;;5010103;28;87166;-50
2023/06/02 04:46:07;;;;;;;;;;;17.30;71.40;;;;;;5006395;28;88126;-47
2023/06/02 04:48:32;;;;;;;;;;;17.30;70.80;;;;;;5012014;28;88802;-46
2023/06/02 04:50:58;;;;;;;;;;;17.30;70.80;;;;;;5012348;28;87601;-48
2023/06/02 04:53:23;;;;;;;;;;;17.30;70.80;;;;;;5015902;28;87196;-48
2023/06/02 04:55:49;;;;;;;;;;;17.30;70.80;;;;;;5009115;28;87335;-46
2023/06/02 04:58:15;;;;;;;;;;;17.30;70.80;;;;;;5013474;28;87184;-47
2023/06/02 05:00:41;;;;;;;;;;;17.30;70.90;;;;;;5010107;28;87299;-46
2023/06/02 05:03:06;;;;;;;;;;;17.30;70.90;;;;;;5012325;28;86564;-46
2023/06/02 05:05:32;;;;;;;;;;;17.30;70.90;;;;;;5007771;28;87191;-48
2023/06/02 05:07:57;;;;;;;;;;;17.30;70.80;;;;;;5012973;28;87429;-48
2023/06/02 05:10:23;;;;;;;;;;;17.30;70.90;;;;;;5011960;28;88861;-46
2023/06/02 05:12:49;;;;;;;;;;;17.30;71.10;;;;;;5012786;28;87348;-48
2023/06/02 05:15:16;;;;;;;;;;;17.30;71.70;;;;;;5012572;28;87362;-46
2023/06/02 05:17:43;;;;;;;;;;;17.30;71.10;;;;;;5013649;28;87121;-47
2023/06/02 05:20:09;;;;;;;;;;;17.30;71.00;;;;;;5011708;28;87148;-46
2023/06/02 05:22:35;;;;;;;;;;;17.30;71.20;;;;;;5011747;28;87231;-47
2023/06/02 05:25:01;;;;;;;;;;;17.30;71.20;;;;;;5009202;28;87210;-46
2023/06/02 05:27:27;;;;;;;;;;;17.30;71.20;;;;;;5014594;28;87443;-47
2023/06/02 05:29:52;;;;;;;;;;;17.30;71.20;;;;;;5010325;28;88991;-46
2023/06/02 05:32:22;;;;;;;;;;;17.40;71.20;;;;;;5010331;28;87510;-47
2023/06/02 05:34:47;;;;;;;;;;;17.40;71.40;;;;;;5009798;28;90235;-47
2023/06/02 05:37:13;;;;;;;;;;;17.40;71.20;;;;;;5015811;28;88276;-48
2023/06/02 05:39:39;;;;;;;;;;;17.40;71.20;;;;;;5012773;28;87095;-47
2023/06/02 05:42:05;;;;;;;;;;;17.40;71.20;;;;;;5009885;28;88181;-46
2023/06/02 05:44:31;;;;;;;;;;;17.40;71.20;;;;;;5009653;28;87293;-46
2023/06/02 05:46:56;;;;;;;;;;;17.40;71.20;;;;;;5012363;28;87368;-47
2023/06/02 05:49:22;;;;;;;;;;;17.40;71.20;;;;;;5012909;28;88014;-46
2023/06/02 05:51:47;;;;;;;;;;;17.40;71.20;;;;;;5014699;28;86377;-49
2023/06/02 05:54:13;;;;;;;;;;;17.40;71.10;;;;;;5009885;28;87273;-50
2023/06/02 05:56:38;;;;;;;;;;;17.40;71.20;;;;;;5012253;28;88047;-47
2023/06/02 05:59:05;;;;;;;;;;;17.40;71.30;;;;;;5013319;28;88049;-48
2023/06/02 06:01:30;;;;;;;;;;;17.40;71.30;;;;;;5010563;28;88287;-48
2023/06/02 06:03:56;;;;;;;;;;;17.40;71.40;;;;;;5009631;28;87294;-46
2023/06/02 06:06:21;;;;;;;;;;;17.40;71.50;;;;;;5011025;28;87391;-46
2023/06/02 06:08:47;;;;;;;;;;;17.40;71.50;;;;;;5013808;28;87831;-46
2023/06/02 06:11:12;;;;;;;;;;;17.40;71.50;;;;;;5012278;28;87322;-46
2023/06/02 06:13:38;;;;;;;;;;;17.50;71.40;;;;;;5007224;28;87365;-48
2023/06/02 06:16:03;;;;;;;;;;;17.40;71.50;;;;;;5013592;28;86438;-47
2023/06/02 06:18:29;;;;;;;;;;;17.40;71.50;;;;;;5012430;28;87821;-46
2023/06/02 06:20:54;;;;;;;;;;;17.50;71.50;;;;;;5007687;28;87361;-47
2023/06/02 06:23:20;;;;;;;;;;;17.40;71.50;;;;;;5007829;28;88140;-49
2023/06/02 06:25:46;;;;;;;;;;;17.50;71.50;;;;;;5013560;28;87445;-48
2023/06/02 06:28:11;;;;;;;;;;;17.40;71.60;;;;;;5006513;28;87776;-46
2023/06/02 06:30:39;;;;;;;;;;;17.40;71.70;;;;;;5007310;28;87192;-48
2023/06/02 06:33:05;;;;;;;;;;;17.50;71.80;;;;;;5013808;28;87268;-47
2023/06/02 06:35:31;;;;;;;;;;;17.40;71.60;;;;;;4993484;28;90945;-46
2023/06/02 06:37:56;;;;;;;;;;;17.50;71.60;;;;;;5010661;28;87965;-48
2023/06/02 06:40:22;;;;;;;;;;;17.50;71.80;;;;;;5010819;28;87570;-47
2023/06/02 06:42:48;;;;;;;;;;;17.50;71.60;;;;;;5010858;28;87099;-46
2023/06/02 06:45:13;;;;;;;;;;;17.60;71.60;;;;;;5010407;28;87120;-47
2023/06/02 06:47:39;;;;;;;;;;;17.50;71.40;;;;;;5008974;28;90859;-46
2023/06/02 06:50:05;;;;;;;;;;;17.50;71.60;;;;;;5007673;28;88278;-48
2023/06/02 06:52:30;;;;;;;;;;;17.50;71.90;;;;;;5011179;28;87469;-47
2023/06/02 06:54:56;;;;;;;;;;;17.50;72.20;;;;;;5012933;28;88043;-48
2023/06/02 06:57:21;;;;;;;;;;;17.50;72.20;;;;;;5011153;28;87491;-47
2023/06/02 06:59:47;;;;;;;;;;;17.60;71.60;;;;;;5009911;28;88114;-46
2023/06/02 07:02:13;;;;;;;;;;;17.60;71.60;;;;;;5017339;28;88114;-47
2023/06/02 07:04:39;;;;;;;;;;;17.60;71.70;;;;;;5013678;28;87654;-46
2023/06/02 07:07:05;;;;;;;;;;;17.60;71.40;;;;;;5013148;28;88300;-46
2023/06/02 07:09:30;;;;;;;;;;;17.60;71.50;;;;;;5012871;28;87247;-47
2023/06/02 07:11:56;;;;;;;;;;;17.60;71.50;;;;;;5015180;28;88070;-46
2023/06/02 07:14:22;;;;;;;;;;;17.60;71.60;;;;;;5012273;28;87965;-46
2023/06/02 07:16:52;;;;;;;;;;;17.60;71.40;;;;;;5013157;28;87259;-46
2023/06/02 07:19:20;;;;;;;;;;;17.60;72.20;;;;;;5013601;28;86993;-46
2023/06/02 07:21:45;;;;;;;;;;;17.60;71.80;;;;;;5015318;28;88217;-47
2023/06/02 07:24:11;;;;;;;;;;;17.60;71.70;;;;;;5017362;28;87217;-47
2023/06/02 07:26:36;;;;;;;;;;;17.60;72.30;;;;;;5013082;28;88210;-46
2023/06/02 07:29:02;;;;;;;;;;;17.60;72.60;;;;;;5016129;28;86566;-47
2023/06/02 07:31:28;;;;;;;;;;;17.60;72.50;;;;;;5015144;28;87179;-46
2023/06/02 07:33:54;;;;;;;;;;;17.60;72.40;;;;;;5014446;28;87972;-47
2023/06/02 07:36:19;;;;;;;;;;;17.60;72.80;;;;;;5012222;28;88086;-47
2023/06/02 07:38:45;;;;;;;;;;;17.60;72.50;;;;;;5015501;28;88279;-49
2023/06/02 07:41:10;;;;;;;;;;;17.60;72.40;;;;;;5014293;28;88186;-49
2023/06/02 07:43:36;;;;;;;;;;;17.60;72.80;;;;;;5013131;28;87790;-47
2023/06/02 07:46:01;;;;;;;;;;;17.60;73.20;;;;;;5018897;28;87527;-48
2023/06/02 07:48:27;;;;;;;;;;;17.60;72.70;;;;;;5014222;28;87153;-46
2023/06/02 07:50:53;;;;;;;;;;;17.60;72.70;;;;;;5014720;28;87603;-48
2023/06/02 07:53:18;;;;;;;;;;;17.60;72.80;;;;;;5012652;28;87201;-48
2023/06/02 07:55:44;;;;;;;;;;;17.60;72.70;;;;;;5015264;28;87617;-47
2023/06/02 07:58:10;;;;;;;;;;;17.60;72.60;;;;;;5014087;28;87349;-50
2023/06/02 08:00:38;;;;;;;;;;;17.60;72.70;;;;;;5011680;28;88994;-47
2023/06/02 08:03:03;;;;;;;;;;;17.70;72.60;;;;;;5011809;28;87148;-46
2023/06/02 08:05:29;;;;;;;;;;;17.60;72.80;;;;;;5016669;28;87438;-47
2023/06/02 08:07:54;;;;;;;;;;;17.70;72.80;;;;;;5014388;28;87153;-46
2023/06/02 08:10:20;;;;;;;;;;;17.70;72.70;;;;;;5012275;28;87608;-46
2023/06/02 08:12:46;;;;;;;;;;;17.70;72.40;;;;;;5013423;28;88163;-47
2023/06/02 08:15:11;;;;;;;;;;;17.80;72.10;;;;;;5014349;28;87088;-46
2023/06/02 08:17:37;;;;;;;;;;;17.80;72.00;;;;;;5014580;28;87208;-46
2023/06/02 08:20:03;;;;;;;;;;;17.80;71.90;;;;;;5012374;28;88121;-47
2023/06/02 08:22:33;;;;;;;;;;;17.80;72.40;;;;;;5013439;28;87126;-48
2023/06/02 08:24:58;;;;;;;;;;;17.80;72.50;;;;;;5014070;28;87989;-47
2023/06/02 08:27:24;;;;;;;;;;;17.80;72.40;;;;;;5015273;28;88015;-46
2023/06/02 08:29:51;;;;;;;;;;;17.80;72.20;;;;;;5013229;28;87203;-46
2023/06/02 08:32:17;;;;;;;;;;;17.80;72.50;;;;;;5012017;28;88122;-48
2023/06/02 08:34:47;;;;;;;;;;;17.90;72.40;;;;;;5014696;28;87085;-46
2023/06/02 08:37:16;;;;;;;;;;;17.90;72.10;;;;;;5013754;28;87376;-48
2023/06/02 08:39:45;;;;;;;;;;;17.90;72.60;;;;;;5011556;28;87295;-46
2023/06/02 08:42:11;;;;;;;;;;;17.90;72.40;;;;;;5013923;28;86778;-46
2023/06/02 08:44:37;;;;;;;;;;;17.90;72.10;;;;;;5014315;28;86955;-47
2023/06/02 08:47:03;;;;;;;;;;;17.90;72.10;;;;;;5012463;28;87999;-46
2023/06/02 08:49:29;;;;;;;;;;;17.90;72.20;;;;;;5014222;28;88131;-48
2023/06/02 08:51:59;;;;;;;;;;;17.90;72.20;;;;;;5012086;28;88231;-45
2023/06/02 08:54:25;;;;;;;;;;;17.90;71.90;;;;;;5011617;28;87123;-46
2023/06/02 08:56:51;;;;;;;;;;;18.00;72.10;;;;;;5013139;28;87317;-47
2023/06/02 08:59:20;;;;;;;;;;;18.00;72.20;;;;;;5013747;28;88018;-46
2023/06/02 09:01:46;;;;;;;;;;;18.00;72.00;;;;;;5011764;28;87151;-46
2023/06/02 09:04:12;;;;;;;;;;;18.00;71.90;;;;;;5014674;28;87081;-47
2023/06/02 09:06:37;;;;;;;;;;;18.00;71.80;;;;;;5011951;28;87557;-46
2023/06/02 09:09:03;;;;;;;;;;;18.00;71.90;;;;;;5014121;28;87296;-46
2023/06/02 09:11:30;;;;;;;;;;;18.10;71.80;;;;;;5014676;28;87510;-46
2023/06/02 09:13:57;;;;;;;;;;;18.10;71.80;;;;;;5010784;28;88105;-46
2023/06/02 09:16:23;;;;;;;;;;;18.10;71.70;;;;;;5014102;28;88329;-46
2023/06/02 09:18:56;;;;;;;;;;;18.10;71.70;;;;;;5011958;28;88087;-47
2023/06/02 09:21:22;;;;;;;;;;;18.10;71.70;;;;;;5014139;28;87722;-47
2023/06/02 09:23:48;;;;;;;;;;;18.10;71.80;;;;;;5011688;28;87649;-46
2023/06/02 09:26:17;;;;;;;;;;;18.10;71.80;;;;;;5012004;28;88099;-48
2023/06/02 09:28:42;;;;;;;;;;;18.10;72.10;;;;;;5014038;28;87071;-46
2023/06/02 09:31:08;;;;;;;;;;;18.10;71.80;;;;;;5011727;28;87575;-47
2023/06/02 09:33:34;;;;;;;;;;;18.10;71.90;;;;;;5016041;28;87185;-47
2023/06/02 09:36:00;;;;;;;;;;;18.20;71.60;;;;;;5011458;28;87075;-47
2023/06/02 09:38:25;;;;;;;;;;;18.20;71.70;;;;;;5012923;28;89123;-47
2023/06/02 09:40:51;;;;;;;;;;;18.20;71.80;;;;;;5012042;28;87182;-47
2023/06/02 09:43:27;;;;;;;;;;;18.20;71.80;;;;;;5011947;28;87045;-46
2023/06/02 09:45:52;;;;;;;;;;;18.20;71.90;;;;;;5011438;28;88207;-46
2023/06/02 09:48:18;;;;;;;;;;;18.20;71.90;;;;;;5011320;28;87138;-46
2023/06/02 09:50:44;;;;;;;;;;;18.30;71.80;;;;;;5013991;28;87754;-46
2023/06/02 09:53:14;;;;;;;;;;;18.30;71.70;;;;;;5010809;28;87993;-48
2023/06/02 09:55:39;;;;;;;;;;;18.30;71.80;;;;;;5014720;28;86276;-46
2023/06/02 09:58:06;;;;;;;;;;;18.30;71.70;;;;;;5013194;28;87161;-46
2023/06/02 10:00:31;;;;;;;;;;;18.30;71.80;;;;;;5011188;28;87252;-46
2023/06/02 10:02:57;;;;;;;;;;;18.40;71.90;;;;;;5011867;28;88102;-46
2023/06/02 10:05:23;;;;;;;;;;;18.40;71.80;;;;;;5013578;28;87972;-46
2023/06/02 10:08:07;;;;;;;;;;;18.40;71.80;;;;;;5010774;28;87128;-47
2023/06/02 10:10:38;;;;;;;;;;;18.40;71.90;;;;;;5010472;28;88003;-46
2023/06/02 10:13:11;;;;;;;;;;;18.40;71.90;;;;;;5010880;28;88054;-47
2023/06/02 10:15:43;;;;;;;;;;;18.50;71.80;;;;;;5013700;28;87083;-46
2023/06/02 10:18:27;;;;;;;;;;;18.40;72.20;;;;;;5011232;28;88162;-46
2023/06/02 10:20:55;;;;;;;;;;;18.50;71.50;;;;;;5013071;28;86352;-46
2023/06/02 10:23:30;;;;;;;;;;;18.50;71.50;;;;;;5010922;28;88037;-47
2023/06/02 10:26:05;;;;;;;;;;;18.60;71.40;;;;;;5011312;28;88095;-48
2023/06/02 10:28:31;;;;;;;;;;;18.60;71.30;;;;;;5010479;28;88067;-46
2023/06/02 10:31:07;;;;;;;;;;;18.60;71.50;;;;;;5013795;28;88522;-46
2023/06/02 10:33:41;;;;;;;;;;;18.60;71.40;;;;;;5014251;28;88574;-47
2023/06/02 10:36:07;;;;;;;;;;;18.60;71.40;;;;;;5016568;28;87039;-49
2023/06/02 10:38:33;;;;;;;;;;;18.60;71.40;;;;;;5016444;28;88306;-47
2023/06/02 10:40:59;;;;;;;;;;;18.60;71.40;;;;;;5015649;28;87123;-46
2023/06/02 10:43:24;;;;;;;;;;;18.70;71.30;;;;;;5015886;28;87571;-47
2023/06/02 10:45:50;;;;;;;;;;;18.70;71.20;;;;;;5013806;28;88893;-47
2023/06/02 10:48:33;;;;;;;;;;;18.70;71.10;;;;;;5014022;28;87539;-47
2023/06/02 10:50:59;;;;;;;;;;;18.80;71.10;;;;;;5013302;28;87664;-46
2023/06/02 10:53:24;;;;;;;;;;;18.80;71.10;;;;;;5013870;28;89192;-46
2023/06/02 10:55:50;;;;;;;;;;;18.80;71.10;;;;;;5016505;28;87161;-47
2023/06/02 10:58:15;;;;;;;;;;;18.80;71.00;;;;;;5013169;28;87425;-46
2023/06/02 11:00:50;;;;;;;;;;;18.90;71.10;;;;;;5017897;28;88064;-47
2023/06/02 11:03:15;;;;;;;;;;;18.90;71.10;;;;;;5016419;28;87976;-47
2023/06/02 11:05:41;;;;;;;;;;;18.90;71.10;;;;;;5012969;28;88271;-46
2023/06/02 11:08:18;;;;;;;;;;;18.90;71.10;;;;;;5014568;28;87372;-47
2023/06/02 11:10:48;;;;;;;;;;;18.90;71.20;;;;;;5014441;28;86464;-46
2023/06/02 11:13:14;;;;;;;;;;;18.80;71.20;;;;;;5012959;28;87938;-48
2023/06/02 11:15:58;;;;;;;;;;;18.90;71.30;;;;;;5016063;28;87148;-46
2023/06/02 11:18:31;;;;;;;;;;;18.90;71.20;;;;;;5015519;28;88029;-46
2023/06/02 11:20:57;;;;;;;;;;;18.90;71.20;;;;;;5013831;28;88091;-47
2023/06/02 11:23:23;;;;;;;;;;;18.90;71.20;;;;;;5016307;28;87108;-46
2023/06/02 11:26:02;;;;;;;;;;;18.90;71.30;;;;;;5013090;28;88177;-46
2023/06/02 11:28:28;;;;;;;;;;;18.90;71.30;;;;;;4995020;28;87009;-48
2023/06/02 11:31:13;;;;;;;;;;;18.90;71.30;;;;;;5015463;28;87078;-46
2023/06/02 11:33:41;;;;;;;;;;;18.90;71.30;;;;;;5012912;28;88086;-46
2023/06/02 11:36:10;;;;;;;;;;;19.00;71.30;;;;;;5015414;28;86435;-47
2023/06/02 11:38:38;;;;;;;;;;;19.00;71.30;;;;;;5015573;28;87719;-46
2023/06/02 11:41:10;;;;;;;;;;;19.00;71.40;;;;;;5012577;28;88048;-46
2023/06/02 11:43:36;;;;;;;;;;;19.00;71.20;;;;;;5012256;28;88033;-47
2023/06/02 11:46:08;;;;;;;;;;;19.00;71.20;;;;;;5017712;28;88267;-47
2023/06/02 11:48:38;;;;;;;;;;;19.00;71.20;;;;;;5015087;28;87462;-48
2023/06/02 11:51:13;;;;;;;;;;;19.10;71.20;;;;;;5014852;28;87114;-47
2023/06/02 11:53:44;;;;;;;;;;;19.10;71.20;;;;;;5015143;28;87886;-46
2023/06/02 11:56:13;;;;;;;;;;;19.10;71.10;;;;;;5013503;28;87644;-47
2023/06/02 11:58:42;;;;;;;;;;;19.10;71.10;;;;;;5012986;28;87018;-48
2023/06/02 12:01:09;;;;;;;;;;;19.10;71.10;;;;;;5012927;28;87348;-46
2023/06/02 12:03:34;;;;;;;;;;;19.10;71.10;;;;;;5014109;28;87176;-46
2023/06/02 12:06:13;;;;;;;;;;;19.10;71.10;;;;;;5015195;28;87322;-46
2023/06/02 12:08:39;;;;;;;;;;;19.20;71.10;;;;;;5016005;28;89114;-46
2023/06/02 12:11:17;;;;;;;;;;;19.20;71.00;;;;;;5012349;28;88329;-47
2023/06/02 12:13:55;;;;;;;;;;;19.30;71.00;;;;;;5013503;28;87351;-46
2023/06/02 12:16:21;;;;;;;;;;;19.30;71.00;;;;;;5013241;28;87723;-47
2023/06/02 12:18:47;;;;;;;;;;;19.30;71.00;;;;;;5013356;28;87504;-46
2023/06/02 12:21:22;;;;;;;;;;;19.30;71.00;;;;;;5013979;28;88134;-47
2023/06/02 12:23:48;;;;;;;;;;;19.30;70.90;;;;;;5013802;28;88211;-47
2023/06/02 12:26:15;;;;;;;;;;;19.30;70.90;;;;;;5012829;28;87561;-47
2023/06/02 12:28:40;;;;;;;;;;;19.30;70.80;;;;;;5014977;28;88013;-48
2023/06/02 12:31:06;;;;;;;;;;;19.40;70.90;;;;;;5013339;28;87384;-47
2023/06/02 12:33:32;;;;;;;;;;;19.40;70.80;;;;;;5013539;28;88930;-46
2023/06/02 12:35:58;;;;;;;;;;;19.40;70.70;;;;;;4993045;28;87312;-46
2023/06/02 12:38:23;;;;;;;;;;;19.40;70.80;;;;;;5013772;28;87595;-46
2023/06/02 12:40:50;;;;;;;;;;;19.40;70.80;;;;;;5013410;28;87976;-46
2023/06/02 12:43:18;;;;;;;;;;;19.50;70.80;;;;;;5011853;28;87217;-46
2023/06/02 12:45:43;;;;;;;;;;;19.50;70.80;;;;;;5013895;28;87366;-47
2023/06/02 12:48:09;;;;;;;;;;;19.50;70.80;;;;;;5013499;28;88235;-46
2023/06/02 12:50:35;;;;;;;;;;;19.50;70.80;;;;;;5016734;28;86385;-46
2023/06/02 12:53:00;;;;;;;;;;;19.50;70.80;;;;;;5011759;28;88028;-47
2023/06/02 12:55:26;;;;;;;;;;;19.60;70.80;;;;;;5013045;28;87215;-47
2023/06/02 12:57:52;;;;;;;;;;;19.50;70.80;;;;;;5013690;28;87976;-47
2023/06/02 13:00:18;;;;;;;;;;;19.50;70.80;;;;;;5011186;28;87429;-46
2023/06/02 13:02:44;;;;;;;;;;;19.60;70.80;;;;;;5013206;28;87097;-47
2023/06/02 13:05:10;;;;;;;;;;;19.60;70.80;;;;;;5014001;28;87492;-48
2023/06/02 13:07:37;;;;;;;;;;;19.60;70.80;;;;;;5012274;28;89037;-46
2023/06/02 13:10:02;;;;;;;;;;;19.60;70.80;;;;;;5013156;28;87121;-46
2023/06/02 13:12:28;;;;;;;;;;;19.60;70.80;;;;;;5015970;28;87163;-46
2023/06/02 13:14:54;;;;;;;;;;;19.70;70.90;;;;;;5011845;28;86368;-46
2023/06/02 13:17:19;;;;;;;;;;;19.70;70.80;;;;;;5013578;28;86991;-46
2023/06/02 13:19:46;;;;;;;;;;;19.70;70.80;;;;;;5012659;28;88041;-46
2023/06/02 13:22:15;;;;;;;;;;;19.80;70.80;;;;;;5013958;28;88032;-47
2023/06/02 13:24:40;;;;;;;;;;;19.80;70.70;;;;;;5011655;28;89004;-47
2023/06/02 13:27:06;;;;;;;;;;;19.80;70.70;;;;;;5012162;28;87179;-46
2023/06/02 13:29:32;;;;;;;;;;;19.80;70.70;;;;;;5014100;28;87120;-46
2023/06/02 13:31:58;;;;;;;;;;;19.80;70.70;;;;;;5010882;28;88624;-46
2023/06/02 13:34:23;;;;;;;;;;;19.80;70.70;;;;;;5015446;28;88196;-47
2023/06/02 13:36:50;;;;;;;;;;;19.90;70.70;;;;;;5013278;28;87416;-49
2023/06/02 13:39:16;;;;;;;;;;;19.90;70.70;;;;;;5013738;28;87380;-47
2023/06/02 13:41:41;;;;;;;;;;;19.90;70.70;;;;;;5011984;28;87197;-47
2023/06/02 13:44:11;;;;;;;;;;;19.90;70.70;;;;;;5011907;28;87336;-49
2023/06/02 13:46:40;;;;;;;;;;;19.90;70.70;;;;;;5012458;28;90312;-48
2023/06/02 13:49:05;;;;;;;;;;;19.90;70.70;;;;;;5012396;28;87429;-48
2023/06/02 13:51:31;;;;;;;;;;;19.90;70.70;;;;;;5013869;28;87349;-46
2023/06/02 13:53:56;;;;;;;;;;;20.00;70.70;;;;;;5010650;28;87067;-47
2023/06/02 13:56:23;;;;;;;;;;;20.00;70.60;;;;;;5015772;28;87331;-47
2023/06/02 13:58:48;;;;;;;;;;;20.10;70.70;;;;;;5012586;28;87402;-48
2023/06/02 14:01:14;;;;;;;;;;;20.10;70.60;;;;;;5010807;28;87063;-47
2023/06/02 14:03:39;;;;;;;;;;;20.10;70.60;;;;;;4995475;28;89014;-46
2023/06/02 14:06:05;;;;;;;;;;;20.10;70.50;;;;;;5011362;28;88026;-47
2023/06/02 14:08:31;;;;;;;;;;;20.10;70.60;;;;;;5013009;28;87189;-46
2023/06/02 14:10:56;;;;;;;;;;;20.10;71.00;;;;;;5010211;28;88077;-46
2023/06/02 14:13:22;;;;;;;;;;;20.10;70.70;;;;;;5011662;28;88056;-46